sensor_id;sensor_type;location;lat;lon;timestamp;P1;durP1;ratioP1;P2;durP2;ratioP2
6424;SDS011;12193;42.642;23.384;2023-06-10T00:01:25;14.20;;;7.33;;
6424;SDS011;12193;42.642;23.384;2023-06-10T00:03:54;12.37;;;7.60;;
6424;SDS011;12193;42.642;23.384;2023-06-10T03:08:25;15.73;;;11.10;;
6424;SDS011;12193;42.642;23.384;2023-06-10T03:10:55;15.20;;;10.70;;
6424;SDS011;12193;42.642;23.384;2023-06-10T03:13:24;13.70;;;9.27;;
6424;SDS011;12193;42.642;23.384;2023-06-10T03:15:56;16.47;;;10.37;;
6424;SDS011;12193;42.642;23.384;2023-06-10T03:18:25;13.30;;;8.73;;
6424;SDS011;12193;42.642;23.384;2023-06-10T03:20:56;13.00;;;9.33;;
6424;SDS011;12193;42.642;23.384;2023-06-10T03:23:28;16.87;;;9.23;;
6424;SDS011;12193;42.642;23.384;2023-06-10T03:25:58;12.83;;;8.97;;
6424;SDS011;12193;42.642;23.384;2023-06-10T03:28:27;12.17;;;8.20;;
6424;SDS011;12193;42.642;23.384;2023-06-10T03:30:57;13.80;;;10.07;;
6424;SDS011;12193;42.642;23.384;2023-06-10T03:33:26;12.40;;;8.93;;
6424;SDS011;12193;42.642;23.384;2023-06-10T03:35:55;16.10;;;9.30;;
6424;SDS011;12193;42.642;23.384;2023-06-10T03:38:25;12.10;;;9.50;;
6424;SDS011;12193;42.642;23.384;2023-06-10T03:40:56;14.53;;;8.73;;
6424;SDS011;12193;42.642;23.384;2023-06-10T03:43:26;12.20;;;8.30;;
6424;SDS011;12193;42.642;23.384;2023-06-10T03:45:57;14.93;;;9.10;;
6424;SDS011;12193;42.642;23.384;2023-06-10T03:48:26;18.83;;;12.00;;
6424;SDS011;12193;42.642;23.384;2023-06-10T03:50:56;11.87;;;9.23;;
6424;SDS011;12193;42.642;23.384;2023-06-10T03:53:28;21.17;;;9.60;;
6424;SDS011;12193;42.642;23.384;2023-06-10T03:55:57;12.27;;;9.33;;
6424;SDS011;12193;42.642;23.384;2023-06-10T03:58:27;14.20;;;9.77;;
6424;SDS011;12193;42.642;23.384;2023-06-10T04:00:56;15.77;;;9.50;;
6424;SDS011;12193;42.642;23.384;2023-06-10T04:03:26;16.33;;;10.47;;
6424;SDS011;12193;42.642;23.384;2023-06-10T04:05:55;16.00;;;10.60;;
6424;SDS011;12193;42.642;23.384;2023-06-10T04:08:24;18.00;;;10.73;;
6424;SDS011;12193;42.642;23.384;2023-06-10T04:10:56;17.83;;;11.27;;
6424;SDS011;12193;42.642;23.384;2023-06-10T04:13:25;17.40;;;11.47;;
6424;SDS011;12193;42.642;23.384;2023-06-10T04:15:55;18.60;;;12.47;;
6424;SDS011;12193;42.642;23.384;2023-06-10T04:18:25;16.00;;;11.93;;
6424;SDS011;12193;42.642;23.384;2023-06-10T04:20:54;23.10;;;12.90;;
6424;SDS011;12193;42.642;23.384;2023-06-10T04:23:24;21.80;;;13.10;;
6424;SDS011;12193;42.642;23.384;2023-06-10T04:25:55;20.23;;;12.40;;
6424;SDS011;12193;42.642;23.384;2023-06-10T04:28:25;15.67;;;10.60;;
6424;SDS011;12193;42.642;23.384;2023-06-10T04:30:54;17.50;;;11.37;;
6424;SDS011;12193;42.642;23.384;2023-06-10T04:33:23;17.80;;;12.00;;
6424;SDS011;12193;42.642;23.384;2023-06-10T04:35:54;17.00;;;12.40;;
6424;SDS011;12193;42.642;23.384;2023-06-10T04:38:23;17.37;;;11.97;;
6424;SDS011;12193;42.642;23.384;2023-06-10T04:40:53;16.80;;;12.93;;
6424;SDS011;12193;42.642;23.384;2023-06-10T04:43:25;17.90;;;12.73;;
6424;SDS011;12193;42.642;23.384;2023-06-10T04:45:54;20.33;;;12.57;;
6424;SDS011;12193;42.642;23.384;2023-06-10T04:48:23;21.00;;;11.83;;
6424;SDS011;12193;42.642;23.384;2023-06-10T04:50:52;17.53;;;12.10;;
6424;SDS011;12193;42.642;23.384;2023-06-10T04:53:22;20.00;;;12.27;;
6424;SDS011;12193;42.642;23.384;2023-06-10T04:55:51;19.63;;;12.43;;
6424;SDS011;12193;42.642;23.384;2023-06-10T04:58:23;20.77;;;13.53;;
6424;SDS011;12193;42.642;23.384;2023-06-10T05:00:53;21.77;;;13.40;;
6424;SDS011;12193;42.642;23.384;2023-06-10T05:03:22;18.57;;;13.30;;
6424;SDS011;12193;42.642;23.384;2023-06-10T05:05:51;25.67;;;14.87;;
6424;SDS011;12193;42.642;23.384;2023-06-10T05:08:21;20.90;;;13.73;;
6424;SDS011;12193;42.642;23.384;2023-06-10T05:10:50;19.87;;;13.00;;
6424;SDS011;12193;42.642;23.384;2023-06-10T05:13:19;19.30;;;13.40;;
6424;SDS011;12193;42.642;23.384;2023-06-10T05:15:51;20.17;;;13.70;;
6424;SDS011;12193;42.642;23.384;2023-06-10T05:18:21;23.40;;;14.00;;
6424;SDS011;12193;42.642;23.384;2023-06-10T05:20:50;20.13;;;12.77;;
6424;SDS011;12193;42.642;23.384;2023-06-10T05:23:19;19.07;;;13.10;;
6424;SDS011;12193;42.642;23.384;2023-06-10T05:25:49;18.30;;;12.70;;
6424;SDS011;12193;42.642;23.384;2023-06-10T05:28:18;20.70;;;13.40;;
6424;SDS011;12193;42.642;23.384;2023-06-10T05:30:48;19.30;;;12.53;;
6424;SDS011;12193;42.642;23.384;2023-06-10T05:33:19;16.07;;;12.23;;
6424;SDS011;12193;42.642;23.384;2023-06-10T05:35:49;18.90;;;12.73;;
6424;SDS011;12193;42.642;23.384;2023-06-10T05:38:18;17.00;;;12.70;;
6424;SDS011;12193;42.642;23.384;2023-06-10T05:40:47;15.10;;;11.37;;
6424;SDS011;12193;42.642;23.384;2023-06-10T05:43:17;16.57;;;11.50;;
6424;SDS011;12193;42.642;23.384;2023-06-10T05:45:46;17.30;;;11.50;;
6424;SDS011;12193;42.642;23.384;2023-06-10T05:48:18;17.57;;;11.77;;
6424;SDS011;12193;42.642;23.384;2023-06-10T05:50:48;19.07;;;12.17;;
6424;SDS011;12193;42.642;23.384;2023-06-10T05:53:17;16.83;;;12.13;;
6424;SDS011;12193;42.642;23.384;2023-06-10T05:55:46;16.43;;;12.20;;
6424;SDS011;12193;42.642;23.384;2023-06-10T05:58:15;17.47;;;12.30;;
6424;SDS011;12193;42.642;23.384;2023-06-10T06:00:45;17.47;;;11.50;;
6424;SDS011;12193;42.642;23.384;2023-06-10T06:03:14;16.43;;;12.23;;
6424;SDS011;12193;42.642;23.384;2023-06-10T06:05:46;17.73;;;12.37;;
6424;SDS011;12193;42.642;23.384;2023-06-10T06:08:15;20.07;;;13.27;;
6424;SDS011;12193;42.642;23.384;2023-06-10T06:10:45;23.03;;;12.60;;
6424;SDS011;12193;42.642;23.384;2023-06-10T06:13:15;20.37;;;12.57;;
6424;SDS011;12193;42.642;23.384;2023-06-10T06:15:44;19.90;;;12.00;;
6424;SDS011;12193;42.642;23.384;2023-06-10T06:18:13;21.67;;;14.23;;
6424;SDS011;12193;42.642;23.384;2023-06-10T06:20:47;22.00;;;14.27;;
6424;SDS011;12193;42.642;23.384;2023-06-10T06:23:16;20.20;;;13.47;;
6424;SDS011;12193;42.642;23.384;2023-06-10T06:25:45;21.40;;;13.87;;
6424;SDS011;12193;42.642;23.384;2023-06-10T06:28:14;20.07;;;14.33;;
6424;SDS011;12193;42.642;23.384;2023-06-10T06:30:44;19.60;;;14.47;;
6424;SDS011;12193;42.642;23.384;2023-06-10T06:33:14;22.43;;;14.40;;
6424;SDS011;12193;42.642;23.384;2023-06-10T06:35:43;21.63;;;14.90;;
6424;SDS011;12193;42.642;23.384;2023-06-10T06:38:15;23.23;;;15.70;;
6424;SDS011;12193;42.642;23.384;2023-06-10T06:40:44;19.53;;;14.73;;
6424;SDS011;12193;42.642;23.384;2023-06-10T06:43:13;21.10;;;14.90;;
6424;SDS011;12193;42.642;23.384;2023-06-10T06:45:43;24.87;;;15.93;;
6424;SDS011;12193;42.642;23.384;2023-06-10T06:48:12;19.30;;;13.57;;
6424;SDS011;12193;42.642;23.384;2023-06-10T06:50:41;19.53;;;14.53;;
6424;SDS011;12193;42.642;23.384;2023-06-10T06:53:11;21.03;;;14.80;;
6424;SDS011;12193;42.642;23.384;2023-06-10T06:55:42;18.60;;;14.43;;
6424;SDS011;12193;42.642;23.384;2023-06-10T06:58:11;22.33;;;14.97;;
6424;SDS011;12193;42.642;23.384;2023-06-10T07:00:41;20.87;;;14.13;;
6424;SDS011;12193;42.642;23.384;2023-06-10T07:03:10;19.73;;;13.83;;
6424;SDS011;12193;42.642;23.384;2023-06-10T07:05:39;21.20;;;13.60;;
6424;SDS011;12193;42.642;23.384;2023-06-10T07:08:08;21.27;;;12.30;;
6424;SDS011;12193;42.642;23.384;2023-06-10T07:10:38;17.20;;;11.07;;
6424;SDS011;12193;42.642;23.384;2023-06-10T07:13:10;15.50;;;10.57;;
6424;SDS011;12193;42.642;23.384;2023-06-10T07:15:39;16.87;;;10.63;;
6424;SDS011;12193;42.642;23.384;2023-06-10T07:18:08;17.87;;;10.33;;
6424;SDS011;12193;42.642;23.384;2023-06-10T07:20:37;15.50;;;9.30;;
6424;SDS011;12193;42.642;23.384;2023-06-10T07:23:07;11.47;;;9.10;;
6424;SDS011;12193;42.642;23.384;2023-06-10T07:25:36;11.07;;;8.67;;
6424;SDS011;12193;42.642;23.384;2023-06-10T07:28:06;11.17;;;8.03;;
6424;SDS011;12193;42.642;23.384;2023-06-10T07:30:38;15.33;;;8.23;;
6424;SDS011;12193;42.642;23.384;2023-06-10T07:33:07;14.90;;;8.70;;
6424;SDS011;12193;42.642;23.384;2023-06-10T07:35:36;10.93;;;8.33;;
6424;SDS011;12193;42.642;23.384;2023-06-10T07:38:09;12.57;;;8.63;;
6424;SDS011;12193;42.642;23.384;2023-06-10T07:40:38;12.77;;;8.00;;
6424;SDS011;12193;42.642;23.384;2023-06-10T07:43:07;11.87;;;8.53;;
6424;SDS011;12193;42.642;23.384;2023-06-10T07:45:39;13.37;;;8.53;;
6424;SDS011;12193;42.642;23.384;2023-06-10T07:48:09;18.13;;;8.53;;
6424;SDS011;12193;42.642;23.384;2023-06-10T07:50:38;11.20;;;7.80;;
6424;SDS011;12193;42.642;23.384;2023-06-10T07:53:07;10.40;;;6.93;;
6424;SDS011;12193;42.642;23.384;2023-06-10T07:55:37;9.87;;;6.57;;
6424;SDS011;12193;42.642;23.384;2023-06-10T07:58:06;13.60;;;7.27;;
6424;SDS011;12193;42.642;23.384;2023-06-10T08:00:36;8.90;;;6.27;;
6424;SDS011;12193;42.642;23.384;2023-06-10T08:03:08;12.43;;;6.53;;
6424;SDS011;12193;42.642;23.384;2023-06-10T08:05:37;12.77;;;6.80;;
6424;SDS011;12193;42.642;23.384;2023-06-10T08:08:07;10.23;;;6.00;;
6424;SDS011;12193;42.642;23.384;2023-06-10T08:10:36;14.50;;;6.37;;
6424;SDS011;12193;42.642;23.384;2023-06-10T08:13:07;13.20;;;6.57;;
6424;SDS011;12193;42.642;23.384;2023-06-10T08:15:39;11.53;;;6.43;;
6424;SDS011;12193;42.642;23.384;2023-06-10T08:18:08;13.03;;;6.83;;
6424;SDS011;12193;42.642;23.384;2023-06-10T08:20:38;11.57;;;7.63;;
6424;SDS011;12193;42.642;23.384;2023-06-10T08:23:07;10.50;;;6.20;;
6424;SDS011;12193;42.642;23.384;2023-06-10T08:25:36;9.43;;;5.77;;
6424;SDS011;12193;42.642;23.384;2023-06-10T08:28:05;9.97;;;5.30;;
6424;SDS011;12193;42.642;23.384;2023-06-10T08:30:35;7.33;;;5.00;;
6424;SDS011;12193;42.642;23.384;2023-06-10T08:33:07;7.20;;;4.77;;
6424;SDS011;12193;42.642;23.384;2023-06-10T08:35:36;6.97;;;4.03;;
6424;SDS011;12193;42.642;23.384;2023-06-10T08:38:05;7.00;;;4.37;;
6424;SDS011;12193;42.642;23.384;2023-06-10T08:40:34;5.77;;;4.33;;
6424;SDS011;12193;42.642;23.384;2023-06-10T08:43:05;8.77;;;4.57;;
6424;SDS011;12193;42.642;23.384;2023-06-10T08:45:36;6.03;;;3.80;;
6424;SDS011;12193;42.642;23.384;2023-06-10T08:48:08;7.00;;;4.47;;
6424;SDS011;12193;42.642;23.384;2023-06-10T08:50:41;5.73;;;4.13;;
6424;SDS011;12193;42.642;23.384;2023-06-10T08:53:11;6.50;;;3.80;;
6424;SDS011;12193;42.642;23.384;2023-06-10T08:55:49;7.33;;;4.47;;
6424;SDS011;12193;42.642;23.384;2023-06-10T08:58:20;6.73;;;4.70;;
6424;SDS011;12193;42.642;23.384;2023-06-10T09:00:50;7.40;;;4.10;;
6424;SDS011;12193;42.642;23.384;2023-06-10T09:03:23;6.10;;;4.17;;
6424;SDS011;12193;42.642;23.384;2023-06-10T09:05:53;5.33;;;3.23;;
6424;SDS011;12193;42.642;23.384;2023-06-10T09:08:23;5.53;;;3.40;;
6424;SDS011;12193;42.642;23.384;2023-06-10T09:10:53;5.37;;;3.50;;
6424;SDS011;12193;42.642;23.384;2023-06-10T09:13:22;5.80;;;4.07;;
6424;SDS011;12193;42.642;23.384;2023-06-10T09:15:51;5.20;;;3.70;;
6424;SDS011;12193;42.642;23.384;2023-06-10T09:18:25;9.27;;;4.57;;
6424;SDS011;12193;42.642;23.384;2023-06-10T09:20:54;5.70;;;4.30;;
6424;SDS011;12193;42.642;23.384;2023-06-10T09:23:23;4.70;;;4.00;;
6424;SDS011;12193;42.642;23.384;2023-06-10T09:25:56;6.77;;;4.33;;
6424;SDS011;12193;42.642;23.384;2023-06-10T09:28:26;5.50;;;4.23;;
6424;SDS011;12193;42.642;23.384;2023-06-10T09:31:05;10.27;;;4.30;;
6424;SDS011;12193;42.642;23.384;2023-06-10T09:33:39;6.37;;;4.17;;
6424;SDS011;12193;42.642;23.384;2023-06-10T09:36:08;6.83;;;3.93;;
6424;SDS011;12193;42.642;23.384;2023-06-10T09:38:38;5.53;;;4.00;;
6424;SDS011;12193;42.642;23.384;2023-06-10T09:41:07;5.25;;;3.85;;
6424;SDS011;12193;42.642;23.384;2023-06-10T09:43:40;5.33;;;3.90;;
6424;SDS011;12193;42.642;23.384;2023-06-10T09:46:16;6.07;;;3.70;;
6424;SDS011;12193;42.642;23.384;2023-06-10T09:48:49;5.13;;;3.60;;
6424;SDS011;12193;42.642;23.384;2023-06-10T09:51:18;7.47;;;3.87;;
6424;SDS011;12193;42.642;23.384;2023-06-10T09:53:49;6.33;;;3.63;;
6424;SDS011;12193;42.642;23.384;2023-06-10T09:56:19;6.03;;;3.80;;
6424;SDS011;12193;42.642;23.384;2023-06-10T09:58:49;5.70;;;3.33;;
6424;SDS011;12193;42.642;23.384;2023-06-10T10:01:22;4.97;;;3.83;;
6424;SDS011;12193;42.642;23.384;2023-06-10T10:03:54;7.90;;;3.57;;
6424;SDS011;12193;42.642;23.384;2023-06-10T10:06:24;5.80;;;3.57;;
6424;SDS011;12193;42.642;23.384;2023-06-10T10:08:54;5.63;;;3.70;;
6424;SDS011;12193;42.642;23.384;2023-06-10T10:11:23;5.67;;;3.63;;
6424;SDS011;12193;42.642;23.384;2023-06-10T10:13:53;6.90;;;3.90;;
6424;SDS011;12193;42.642;23.384;2023-06-10T10:16:23;7.37;;;4.27;;
6424;SDS011;12193;42.642;23.384;2023-06-10T10:19:01;5.90;;;4.23;;
6424;SDS011;12193;42.642;23.384;2023-06-10T10:21:37;7.27;;;4.03;;
6424;SDS011;12193;42.642;23.384;2023-06-10T10:24:21;6.23;;;3.80;;
6424;SDS011;12193;42.642;23.384;2023-06-10T10:26:54;5.80;;;4.00;;
6424;SDS011;12193;42.642;23.384;2023-06-10T10:29:31;5.00;;;3.67;;
6424;SDS011;12193;42.642;23.384;2023-06-10T10:32:07;5.27;;;3.43;;
6424;SDS011;12193;42.642;23.384;2023-06-10T10:34:43;5.63;;;3.30;;
6424;SDS011;12193;42.642;23.384;2023-06-10T10:37:18;4.70;;;3.30;;
6424;SDS011;12193;42.642;23.384;2023-06-10T10:39:48;3.70;;;3.00;;
6424;SDS011;12193;42.642;23.384;2023-06-10T10:42:18;5.93;;;3.53;;
6424;SDS011;12193;42.642;23.384;2023-06-10T10:44:48;5.33;;;3.50;;
6424;SDS011;12193;42.642;23.384;2023-06-10T10:47:18;5.23;;;3.00;;
6424;SDS011;12193;42.642;23.384;2023-06-10T10:49:53;7.63;;;3.30;;
6424;SDS011;12193;42.642;23.384;2023-06-10T10:52:24;5.33;;;3.20;;
6424;SDS011;12193;42.642;23.384;2023-06-10T10:54:54;6.60;;;3.30;;
6424;SDS011;12193;42.642;23.384;2023-06-10T10:57:24;5.40;;;2.97;;
6424;SDS011;12193;42.642;23.384;2023-06-10T10:59:58;3.97;;;3.17;;
6424;SDS011;12193;42.642;23.384;2023-06-10T11:02:34;5.00;;;3.73;;
6424;SDS011;12193;42.642;23.384;2023-06-10T11:05:08;5.07;;;3.57;;
6424;SDS011;12193;42.642;23.384;2023-06-10T11:07:38;5.33;;;3.73;;
6424;SDS011;12193;42.642;23.384;2023-06-10T11:10:07;6.93;;;4.13;;
6424;SDS011;12193;42.642;23.384;2023-06-10T11:12:51;6.23;;;4.00;;
6424;SDS011;12193;42.642;23.384;2023-06-10T11:15:22;7.57;;;4.00;;
6424;SDS011;12193;42.642;23.384;2023-06-10T11:20:50;5.23;;;3.67;;
6424;SDS011;12193;42.642;23.384;2023-06-10T11:23:24;7.70;;;3.83;;
6424;SDS011;12193;42.642;23.384;2023-06-10T11:26:08;7.47;;;4.00;;
6424;SDS011;12193;42.642;23.384;2023-06-10T11:28:38;6.60;;;4.40;;
6424;SDS011;12193;42.642;23.384;2023-06-10T11:31:08;5.67;;;4.20;;
6424;SDS011;12193;42.642;23.384;2023-06-10T11:33:47;4.60;;;3.60;;
6424;SDS011;12193;42.642;23.384;2023-06-10T11:36:20;5.00;;;3.93;;
6424;SDS011;12193;42.642;23.384;2023-06-10T11:38:49;4.00;;;3.57;;
6424;SDS011;12193;42.642;23.384;2023-06-10T11:41:22;5.03;;;3.80;;
6424;SDS011;12193;42.642;23.384;2023-06-10T11:43:53;4.37;;;3.53;;
6424;SDS011;12193;42.642;23.384;2023-06-10T11:46:23;5.30;;;3.70;;
6424;SDS011;12193;42.642;23.384;2023-06-10T11:48:53;5.23;;;3.80;;
6424;SDS011;12193;42.642;23.384;2023-06-10T11:51:27;4.20;;;3.43;;
6424;SDS011;12193;42.642;23.384;2023-06-10T11:53:57;4.33;;;3.53;;
6424;SDS011;12193;42.642;23.384;2023-06-10T11:56:27;4.40;;;3.67;;
6424;SDS011;12193;42.642;23.384;2023-06-10T11:58:58;5.03;;;4.07;;
6424;SDS011;12193;42.642;23.384;2023-06-10T12:01:30;4.83;;;3.60;;
6424;SDS011;12193;42.642;23.384;2023-06-10T12:04:01;5.23;;;3.90;;
6424;SDS011;12193;42.642;23.384;2023-06-10T12:06:41;4.60;;;3.30;;
6424;SDS011;12193;42.642;23.384;2023-06-10T12:09:17;5.77;;;3.43;;
6424;SDS011;12193;42.642;23.384;2023-06-10T12:11:48;4.90;;;3.83;;
6424;SDS011;12193;42.642;23.384;2023-06-10T12:17:18;6.63;;;3.80;;
6424;SDS011;12193;42.642;23.384;2023-06-10T12:19:48;5.93;;;3.77;;
6424;SDS011;12193;42.642;23.384;2023-06-10T12:22:20;4.90;;;4.07;;
6424;SDS011;12193;42.642;23.384;2023-06-10T12:25:00;5.97;;;3.97;;
6424;SDS011;12193;42.642;23.384;2023-06-10T12:27:33;5.90;;;3.90;;
6424;SDS011;12193;42.642;23.384;2023-06-10T12:30:04;5.37;;;3.40;;
6424;SDS011;12193;42.642;23.384;2023-06-10T12:32:35;4.43;;;3.70;;
6424;SDS011;12193;42.642;23.384;2023-06-10T12:35:05;4.30;;;3.70;;
6424;SDS011;12193;42.642;23.384;2023-06-10T12:37:38;5.77;;;3.77;;
6424;SDS011;12193;42.642;23.384;2023-06-10T12:40:08;5.43;;;3.53;;
6424;SDS011;12193;42.642;23.384;2023-06-10T12:42:38;4.03;;;3.33;;
6424;SDS011;12193;42.642;23.384;2023-06-10T12:45:08;5.37;;;3.60;;
6424;SDS011;12193;42.642;23.384;2023-06-10T12:47:38;4.50;;;3.30;;
6424;SDS011;12193;42.642;23.384;2023-06-10T12:50:08;5.83;;;3.37;;
6424;SDS011;12193;42.642;23.384;2023-06-10T12:52:41;5.57;;;3.53;;
6424;SDS011;12193;42.642;23.384;2023-06-10T12:55:10;4.77;;;3.90;;
6424;SDS011;12193;42.642;23.384;2023-06-10T12:57:47;5.37;;;3.40;;
6424;SDS011;12193;42.642;23.384;2023-06-10T13:00:18;6.37;;;3.73;;
6424;SDS011;12193;42.642;23.384;2023-06-10T13:02:48;4.17;;;3.63;;
6424;SDS011;12193;42.642;23.384;2023-06-10T13:05:18;4.77;;;3.90;;
6424;SDS011;12193;42.642;23.384;2023-06-10T13:07:51;6.43;;;3.80;;
6424;SDS011;12193;42.642;23.384;2023-06-10T13:10:20;6.30;;;3.70;;
6424;SDS011;12193;42.642;23.384;2023-06-10T13:12:51;5.70;;;3.43;;
6424;SDS011;12193;42.642;23.384;2023-06-10T13:15:20;5.90;;;3.80;;
6424;SDS011;12193;42.642;23.384;2023-06-10T13:17:52;3.80;;;3.40;;
6424;SDS011;12193;42.642;23.384;2023-06-10T13:20:21;4.43;;;3.37;;
6424;SDS011;12193;42.642;23.384;2023-06-10T13:22:54;3.60;;;3.20;;
6424;SDS011;12193;42.642;23.384;2023-06-10T13:25:23;7.10;;;4.00;;
6424;SDS011;12193;42.642;23.384;2023-06-10T13:27:53;4.53;;;3.63;;
6424;SDS011;12193;42.642;23.384;2023-06-10T13:30:23;4.90;;;3.70;;
6424;SDS011;12193;42.642;23.384;2023-06-10T13:32:52;5.03;;;3.30;;
6424;SDS011;12193;42.642;23.384;2023-06-10T13:35:22;4.80;;;3.47;;
6424;SDS011;12193;42.642;23.384;2023-06-10T13:37:53;9.57;;;7.47;;
6424;SDS011;12193;42.642;23.384;2023-06-10T13:40:23;7.03;;;4.03;;
6424;SDS011;12193;42.642;23.384;2023-06-10T13:42:52;11.03;;;4.33;;
6424;SDS011;12193;42.642;23.384;2023-06-10T13:45:21;7.90;;;5.50;;
6424;SDS011;12193;42.642;23.384;2023-06-10T13:47:51;7.17;;;4.93;;
6424;SDS011;12193;42.642;23.384;2023-06-10T13:50:20;9.73;;;5.10;;
6424;SDS011;12193;42.642;23.384;2023-06-10T13:52:50;8.90;;;4.40;;
6424;SDS011;12193;42.642;23.384;2023-06-10T13:55:22;8.00;;;4.37;;
6424;SDS011;12193;42.642;23.384;2023-06-10T13:57:51;5.30;;;4.30;;
6424;SDS011;12193;42.642;23.384;2023-06-10T14:00:21;9.10;;;4.87;;
6424;SDS011;12193;42.642;23.384;2023-06-10T14:02:50;8.27;;;4.60;;
6424;SDS011;12193;42.642;23.384;2023-06-10T14:05:20;6.77;;;4.50;;
6424;SDS011;12193;42.642;23.384;2023-06-10T14:07:50;7.33;;;4.97;;
6424;SDS011;12193;42.642;23.384;2023-06-10T14:10:21;9.47;;;4.80;;
6424;SDS011;12193;42.642;23.384;2023-06-10T14:12:51;7.00;;;4.80;;
6424;SDS011;12193;42.642;23.384;2023-06-10T14:15:20;8.07;;;4.63;;
6424;SDS011;12193;42.642;23.384;2023-06-10T14:17:49;6.20;;;4.50;;
6424;SDS011;12193;42.642;23.384;2023-06-10T14:20:19;9.20;;;4.60;;
6424;SDS011;12193;42.642;23.384;2023-06-10T14:22:49;7.70;;;4.43;;
6424;SDS011;12193;42.642;23.384;2023-06-10T14:25:18;8.43;;;4.43;;
6424;SDS011;12193;42.642;23.384;2023-06-10T14:27:50;5.20;;;4.10;;
6424;SDS011;12193;42.642;23.384;2023-06-10T14:30:20;6.37;;;4.33;;
6424;SDS011;12193;42.642;23.384;2023-06-10T14:32:49;5.63;;;4.40;;
6424;SDS011;12193;42.642;23.384;2023-06-10T14:35:18;10.50;;;4.53;;
6424;SDS011;12193;42.642;23.384;2023-06-10T14:37:48;7.13;;;4.53;;
6424;SDS011;12193;42.642;23.384;2023-06-10T14:40:18;8.07;;;4.70;;
6424;SDS011;12193;42.642;23.384;2023-06-10T14:42:49;6.37;;;4.27;;
6424;SDS011;12193;42.642;23.384;2023-06-10T14:45:19;5.87;;;4.37;;
6424;SDS011;12193;42.642;23.384;2023-06-10T14:47:48;6.13;;;4.23;;
6424;SDS011;12193;42.642;23.384;2023-06-10T14:50:18;6.70;;;4.97;;
6424;SDS011;12193;42.642;23.384;2023-06-10T14:52:47;5.67;;;4.30;;
6424;SDS011;12193;42.642;23.384;2023-06-10T14:55:17;7.70;;;5.10;;
6424;SDS011;12193;42.642;23.384;2023-06-10T14:57:51;8.87;;;5.30;;
6424;SDS011;12193;42.642;23.384;2023-06-10T15:00:21;6.77;;;4.37;;
6424;SDS011;12193;42.642;23.384;2023-06-10T15:02:51;7.87;;;5.00;;
6424;SDS011;12193;42.642;23.384;2023-06-10T15:05:23;6.73;;;4.73;;
6424;SDS011;12193;42.642;23.384;2023-06-10T15:07:52;11.03;;;4.40;;
6424;SDS011;12193;42.642;23.384;2023-06-10T15:10:21;6.90;;;4.20;;
6424;SDS011;12193;42.642;23.384;2023-06-10T15:12:53;6.57;;;4.70;;
6424;SDS011;12193;42.642;23.384;2023-06-10T15:15:24;7.77;;;4.70;;
6424;SDS011;12193;42.642;23.384;2023-06-10T15:17:53;10.10;;;5.17;;
6424;SDS011;12193;42.642;23.384;2023-06-10T15:20:23;8.07;;;5.07;;
6424;SDS011;12193;42.642;23.384;2023-06-10T15:22:52;7.37;;;4.57;;
6424;SDS011;12193;42.642;23.384;2023-06-10T15:25:22;7.10;;;4.70;;
6424;SDS011;12193;42.642;23.384;2023-06-10T15:27:55;9.33;;;5.47;;
6424;SDS011;12193;42.642;23.384;2023-06-10T15:30:24;6.17;;;4.90;;
6424;SDS011;12193;42.642;23.384;2023-06-10T15:32:53;7.33;;;5.13;;
6424;SDS011;12193;42.642;23.384;2023-06-10T15:35:23;9.73;;;5.20;;
6424;SDS011;12193;42.642;23.384;2023-06-10T15:37:52;8.20;;;4.97;;
6424;SDS011;12193;42.642;23.384;2023-06-10T15:40:21;6.57;;;5.20;;
6424;SDS011;12193;42.642;23.384;2023-06-10T15:42:54;5.43;;;4.37;;
6424;SDS011;12193;42.642;23.384;2023-06-10T15:45:23;8.13;;;5.47;;
6424;SDS011;12193;42.642;23.384;2023-06-10T15:47:53;7.93;;;4.97;;
6424;SDS011;12193;42.642;23.384;2023-06-10T15:50:22;9.20;;;4.97;;
6424;SDS011;12193;42.642;23.384;2023-06-10T15:52:51;5.57;;;4.47;;
6424;SDS011;12193;42.642;23.384;2023-06-10T15:55:21;7.90;;;5.30;;
6424;SDS011;12193;42.642;23.384;2023-06-10T15:57:54;7.63;;;4.93;;
6424;SDS011;12193;42.642;23.384;2023-06-10T16:00:26;7.37;;;4.37;;
6424;SDS011;12193;42.642;23.384;2023-06-10T16:02:55;6.77;;;4.87;;
6424;SDS011;12193;42.642;23.384;2023-06-10T16:05:24;6.77;;;4.40;;
6424;SDS011;12193;42.642;23.384;2023-06-10T16:07:53;6.13;;;4.20;;
6424;SDS011;12193;42.642;23.384;2023-06-10T16:10:23;6.97;;;4.30;;
6424;SDS011;12193;42.642;23.384;2023-06-10T16:12:55;7.13;;;4.10;;
6424;SDS011;12193;42.642;23.384;2023-06-10T16:15:24;5.03;;;3.97;;
6424;SDS011;12193;42.642;23.384;2023-06-10T16:17:54;6.23;;;4.17;;
6424;SDS011;12193;42.642;23.384;2023-06-10T16:20:24;5.40;;;3.90;;
6424;SDS011;12193;42.642;23.384;2023-06-10T16:22:53;7.97;;;4.30;;
6424;SDS011;12193;42.642;23.384;2023-06-10T16:25:22;6.10;;;4.17;;
6424;SDS011;12193;42.642;23.384;2023-06-10T16:27:54;7.57;;;4.20;;
6424;SDS011;12193;42.642;23.384;2023-06-10T16:30:24;5.73;;;3.80;;
6424;SDS011;12193;42.642;23.384;2023-06-10T16:32:53;9.77;;;4.17;;
6424;SDS011;12193;42.642;23.384;2023-06-10T16:35:23;6.27;;;4.50;;
6424;SDS011;12193;42.642;23.384;2023-06-10T16:37:52;6.03;;;4.07;;
6424;SDS011;12193;42.642;23.384;2023-06-10T16:40:21;5.60;;;4.03;;
6424;SDS011;12193;42.642;23.384;2023-06-10T16:42:51;6.03;;;3.50;;
6424;SDS011;12193;42.642;23.384;2023-06-10T16:45:26;6.07;;;4.00;;
6424;SDS011;12193;42.642;23.384;2023-06-10T16:47:55;6.93;;;4.30;;
6424;SDS011;12193;42.642;23.384;2023-06-10T16:50:25;6.73;;;4.43;;
6424;SDS011;12193;42.642;23.384;2023-06-10T16:52:54;6.50;;;4.20;;
6424;SDS011;12193;42.642;23.384;2023-06-10T16:55:24;6.30;;;4.17;;
6424;SDS011;12193;42.642;23.384;2023-06-10T16:57:53;8.10;;;4.50;;
6424;SDS011;12193;42.642;23.384;2023-06-10T17:00:22;6.93;;;4.90;;
6424;SDS011;12193;42.642;23.384;2023-06-10T17:02:55;11.33;;;4.27;;
6424;SDS011;12193;42.642;23.384;2023-06-10T17:05:24;5.30;;;4.40;;
6424;SDS011;12193;42.642;23.384;2023-06-10T17:07:53;7.23;;;4.37;;
6424;SDS011;12193;42.642;23.384;2023-06-10T17:10:22;5.20;;;4.13;;
6424;SDS011;12193;42.642;23.384;2023-06-10T17:12:52;5.80;;;4.03;;
6424;SDS011;12193;42.642;23.384;2023-06-10T17:15:21;8.00;;;4.40;;
6424;SDS011;12193;42.642;23.384;2023-06-10T17:17:53;8.33;;;4.23;;
6424;SDS011;12193;42.642;23.384;2023-06-10T17:20:22;5.93;;;4.60;;
6424;SDS011;12193;42.642;23.384;2023-06-10T17:22:53;6.07;;;4.40;;
6424;SDS011;12193;42.642;23.384;2023-06-10T17:25:22;7.27;;;4.20;;
6424;SDS011;12193;42.642;23.384;2023-06-10T17:27:51;5.97;;;4.40;;
6424;SDS011;12193;42.642;23.384;2023-06-10T17:30:20;7.60;;;5.00;;
6424;SDS011;12193;42.642;23.384;2023-06-10T17:32:50;7.30;;;4.57;;
6424;SDS011;12193;42.642;23.384;2023-06-10T17:35:22;9.30;;;4.73;;
6424;SDS011;12193;42.642;23.384;2023-06-10T17:37:51;7.37;;;4.47;;
6424;SDS011;12193;42.642;23.384;2023-06-10T17:40:21;8.37;;;4.80;;
6424;SDS011;12193;42.642;23.384;2023-06-10T17:42:51;5.13;;;4.00;;
6424;SDS011;12193;42.642;23.384;2023-06-10T17:45:20;6.90;;;4.57;;
6424;SDS011;12193;42.642;23.384;2023-06-10T17:47:53;7.43;;;5.10;;
6424;SDS011;12193;42.642;23.384;2023-06-10T17:50:22;6.43;;;4.27;;
6424;SDS011;12193;42.642;23.384;2023-06-10T17:52:52;5.73;;;4.50;;
6424;SDS011;12193;42.642;23.384;2023-06-10T17:55:21;6.83;;;4.33;;
6424;SDS011;12193;42.642;23.384;2023-06-10T17:57:50;6.43;;;4.83;;
6424;SDS011;12193;42.642;23.384;2023-06-10T18:00:20;8.67;;;4.90;;
6424;SDS011;12193;42.642;23.384;2023-06-10T18:02:49;8.30;;;4.70;;
6424;SDS011;12193;42.642;23.384;2023-06-10T18:05:21;6.57;;;4.70;;
6424;SDS011;12193;42.642;23.384;2023-06-10T18:07:51;9.97;;;4.70;;